Time;durP1;ratioP1;P1;durP2;ratioP2;P2;SDS_P1;SDS_P2;PMS_P1;PMS_P2;Temp;Humidity;BMP_temperature;BMP_pressure;BME280_temperature;BME280_humidity;BME280_pressure;Samples;Min_cycle;Max_cycle;Signal;HPM_P1;HPM_P2
2022/12/31 00:01:59;;;;;;;4.23;3.20;;;8.50;99.90;;;;;;5087331;28;20224;-76
2022/12/31 00:04:25;;;;;;;3.80;3.10;;;8.50;99.90;;;;;;5072908;28;20178;-75
2022/12/31 00:06:52;;;;;;;3.47;3.10;;;8.50;99.90;;;;;;5054513;28;20191;-75
2022/12/31 00:09:18;;;;;;;5.67;3.60;;;8.60;99.90;;;;;;5077605;28;20275;-75
2022/12/31 00:11:45;;;;;;;4.70;3.13;;;8.60;99.90;;;;;;5057162;28;20292;-76
2022/12/31 00:14:11;;;;;;;4.07;3.40;;;8.60;99.90;;;;;;5056736;28;20595;-75
2022/12/31 00:16:40;;;;;;;5.60;3.57;;;8.50;99.90;;;;;;5055989;28;20252;-76
2022/12/31 00:19:10;;;;;;;4.53;3.60;;;8.50;99.90;;;;;;5081399;28;20201;-76
2022/12/31 00:21:38;;;;;;;5.13;3.07;;;8.60;99.90;;;;;;5074941;28;20240;-76
2022/12/31 00:24:06;;;;;;;5.17;3.70;;;8.60;99.90;;;;;;5057366;28;20190;-76
2022/12/31 00:26:34;;;;;;;4.53;3.10;;;8.60;99.90;;;;;;5077686;28;20191;-76
2022/12/31 00:29:02;;;;;;;3.47;3.07;;;8.60;99.90;;;;;;5063233;28;20195;-76
2022/12/31 00:31:35;;;;;;;4.60;3.40;;;8.60;99.90;;;;;;5053925;28;20198;-76
2022/12/31 00:34:05;;;;;;;5.53;3.20;;;8.70;99.90;;;;;;5077374;28;20281;-75
2022/12/31 00:36:38;;;;;;;6.77;3.67;;;8.70;99.90;;;;;;5070519;28;20219;-76
2022/12/31 00:39:07;;;;;;;4.00;3.27;;;8.70;99.90;;;;;;5099554;28;20224;-75
2022/12/31 00:41:34;;;;;;;5.23;3.40;;;8.70;99.90;;;;;;5066494;28;20604;-75
2022/12/31 00:44:01;;;;;;;3.67;3.17;;;8.70;99.90;;;;;;5077677;28;20185;-75
2022/12/31 00:46:27;;;;;;;5.33;3.03;;;8.60;99.90;;;;;;5073640;28;20814;-75
2022/12/31 00:48:54;;;;;;;3.93;2.90;;;8.60;99.90;;;;;;5075956;28;20183;-76
2022/12/31 00:51:26;;;;;;;4.47;3.07;;;8.70;99.90;;;;;;5066298;28;20218;-76
2022/12/31 00:53:53;;;;;;;4.53;3.40;;;8.60;99.90;;;;;;5067079;28;20543;-76
2022/12/31 00:56:24;;;;;;;4.43;3.13;;;8.60;99.90;;;;;;5064941;28;20226;-75
2022/12/31 00:58:51;;;;;;;4.37;3.23;;;8.60;99.90;;;;;;5077343;28;20179;-75
2022/12/31 01:01:26;;;;;;;4.37;3.10;;;8.60;99.90;;;;;;5057875;28;20183;-75
2022/12/31 01:03:59;;;;;;;4.50;3.40;;;8.60;99.90;;;;;;5065916;28;20530;-75
2022/12/31 01:06:26;;;;;;;3.20;2.70;;;8.60;99.90;;;;;;5057807;28;20187;-75
2022/12/31 01:08:54;;;;;;;4.37;3.27;;;8.60;99.90;;;;;;5078651;28;20186;-75
2022/12/31 01:11:22;;;;;;;4.23;3.20;;;8.60;99.90;;;;;;5059133;28;20178;-75
2022/12/31 01:14:14;;;;;;;3.90;2.97;;;8.60;99.90;;;;;;5090268;28;20620;-76
2022/12/31 01:16:45;;;;;;;8.13;3.63;;;8.60;99.90;;;;;;5058290;28;20211;-76
2022/12/31 01:19:21;;;;;;;5.27;3.40;;;8.70;99.90;;;;;;5071269;28;20238;-76
2022/12/31 01:21:49;;;;;;;4.43;3.40;;;8.70;99.90;;;;;;5056551;28;20175;-76
2022/12/31 01:24:16;;;;;;;6.43;3.20;;;8.70;99.90;;;;;;5077231;28;20182;-76
2022/12/31 01:26:44;;;;;;;5.33;3.63;;;8.70;99.90;;;;;;5071099;28;20269;-75
2022/12/31 01:29:11;;;;;;;4.47;3.23;;;8.80;99.90;;;;;;5076703;28;20191;-76
2022/12/31 01:31:39;;;;;;;4.70;3.00;;;8.80;99.90;;;;;;5054920;28;20179;-75
2022/12/31 01:34:06;;;;;;;3.97;3.00;;;8.70;99.90;;;;;;5095638;28;20620;-75
2022/12/31 01:36:35;;;;;;;4.33;3.30;;;8.70;99.90;;;;;;5071168;28;20203;-76
2022/12/31 01:39:05;;;;;;;8.23;3.47;;;8.70;99.90;;;;;;5083124;28;20182;-76
2022/12/31 01:41:37;;;;;;;5.10;3.60;;;8.80;99.90;;;;;;5076433;28;20187;-75
2022/12/31 01:44:12;;;;;;;4.83;3.47;;;8.80;99.90;;;;;;5076035;28;20294;-75
2022/12/31 01:46:44;;;;;;;5.10;3.80;;;8.80;99.90;;;;;;5058840;28;20725;-76
2022/12/31 01:49:20;;;;;;;3.97;3.13;;;8.80;99.90;;;;;;5079829;28;20186;-76
2022/12/31 01:51:57;;;;;;;5.80;3.77;;;8.80;99.90;;;;;;5061221;28;20201;-75
2022/12/31 01:54:29;;;;;;;6.20;3.40;;;8.90;99.90;;;;;;5101755;28;20194;-75
2022/12/31 01:56:56;;;;;;;4.73;3.70;;;8.90;99.90;;;;;;5067048;28;20211;-76
2022/12/31 01:59:27;;;;;;;4.03;3.53;;;8.90;99.90;;;;;;5065590;28;20262;-76
2022/12/31 02:01:54;;;;;;;5.97;3.60;;;8.90;99.90;;;;;;5045847;28;20245;-75
2022/12/31 02:04:25;;;;;;;4.93;3.27;;;8.90;99.90;;;;;;5081688;28;20176;-76
2022/12/31 02:07:07;;;;;;;4.03;3.27;;;8.90;99.90;;;;;;5060352;28;20712;-76
2022/12/31 02:09:38;;;;;;;4.43;3.27;;;8.90;99.90;;;;;;5060695;28;20190;-75
2022/12/31 02:12:06;;;;;;;5.70;3.53;;;8.90;99.90;;;;;;5068074;28;20179;-76
2022/12/31 02:14:48;;;;;;;3.17;2.87;;;8.90;99.90;;;;;;5085657;28;20186;-76
2022/12/31 02:17:36;;;;;;;6.70;3.37;;;8.90;99.90;;;;;;5066302;28;20206;-75
2022/12/31 02:21:15;;;;;;;6.67;3.50;;;8.90;99.90;;;;;;5075337;28;20236;-75
2022/12/31 02:24:24;;;;;;;5.90;3.73;;;8.90;99.90;;;;;;5041884;28;20194;-76
2022/12/31 02:27:17;;;;;;;5.03;3.40;;;8.80;99.90;;;;;;5061891;28;20262;-75
2022/12/31 02:30:07;;;;;;;4.83;3.43;;;8.80;99.90;;;;;;5076100;28;20289;-76
2022/12/31 02:32:54;;;;;;;6.80;3.93;;;8.80;99.90;;;;;;5059635;28;20194;-75
2022/12/31 02:35:42;;;;;;;6.13;4.03;;;8.80;99.90;;;;;;5071364;28;20210;-75
2022/12/31 02:38:24;;;;;;;4.50;3.50;;;8.80;99.90;;;;;;5064837;28;20238;-76
2022/12/31 02:40:53;;;;;;;4.43;3.67;;;8.70;99.90;;;;;;5094059;28;20220;-76
2022/12/31 02:43:23;;;;;;;5.70;3.77;;;8.70;99.90;;;;;;5083230;28;20257;-75
2022/12/31 02:46:22;;;;;;;5.83;3.67;;;8.70;99.90;;;;;;5089537;28;20191;-77
2022/12/31 02:49:19;;;;;;;4.63;3.60;;;8.70;99.90;;;;;;5060177;28;20199;-77
2022/12/31 02:52:13;;;;;;;4.57;3.57;;;8.70;99.90;;;;;;5030904;28;20199;-76
2022/12/31 02:54:54;;;;;;;4.47;3.53;;;8.60;99.90;;;;;;5069941;28;20198;-77
2022/12/31 02:57:31;;;;;;;4.03;3.27;;;8.60;99.90;;;;;;5079362;28;20859;-77
2022/12/31 03:02:54;;;;;;;5.50;3.60;;;8.60;99.90;;;;;;5064215;28;20186;-77
2022/12/31 03:05:32;;;;;;;4.37;3.37;;;8.50;99.90;;;;;;5077191;28;20566;-77
2022/12/31 03:07:58;;;;;;;3.87;3.00;;;8.50;99.90;;;;;;5065912;28;20187;-77
2022/12/31 03:10:25;;;;;;;4.67;3.57;;;8.50;99.90;;;;;;5063548;28;20179;-77
2022/12/31 03:12:52;;;;;;;4.10;3.43;;;8.50;99.90;;;;;;5058819;28;20593;-77
2022/12/31 03:15:31;;;;;;;9.33;3.70;;;8.40;99.90;;;;;;5049957;28;20687;-77
2022/12/31 03:18:13;;;;;;;4.17;3.30;;;8.40;99.90;;;;;;5078479;28;20221;-77
2022/12/31 03:26:32;;;;;;;5.93;3.73;;;8.20;99.90;;;;;;5069142;28;20183;-77
2022/12/31 03:28:58;;;;;;;5.43;3.57;;;8.20;99.90;;;;;;5086092;28;20738;-77
2022/12/31 03:31:24;;;;;;;5.30;3.27;;;8.30;99.90;;;;;;5059854;28;20274;-77
2022/12/31 03:33:50;;;;;;;4.57;3.50;;;8.30;99.90;;;;;;5066534;28;20185;-77
2022/12/31 03:36:17;;;;;;;6.50;4.10;;;8.20;99.90;;;;;;5065799;28;20398;-77
2022/12/31 03:38:43;;;;;;;5.33;3.73;;;8.10;99.90;;;;;;5082815;28;20269;-77
2022/12/31 03:41:10;;;;;;;5.17;3.90;;;8.20;99.90;;;;;;5064793;28;20569;-77
2022/12/31 03:43:37;;;;;;;5.17;3.70;;;8.10;99.90;;;;;;5073875;28;20231;-77
2022/12/31 03:46:04;;;;;;;5.43;3.87;;;8.10;99.90;;;;;;5073137;28;20580;-77
2022/12/31 03:48:30;;;;;;;5.37;4.00;;;8.10;99.90;;;;;;5076599;28;20260;-77
2022/12/31 03:50:57;;;;;;;4.87;3.43;;;8.10;99.90;;;;;;5065008;28;20642;-77
2022/12/31 03:53:24;;;;;;;5.60;3.33;;;8.10;99.90;;;;;;5051183;28;20251;-76
2022/12/31 03:55:52;;;;;;;5.17;3.50;;;8.20;99.90;;;;;;5069732;28;20198;-77
2022/12/31 03:58:19;;;;;;;4.00;3.60;;;8.10;99.90;;;;;;5054804;28;20260;-77
2022/12/31 04:00:45;;;;;;;6.00;4.23;;;8.10;99.90;;;;;;5066665;28;20187;-77
2022/12/31 04:03:11;;;;;;;5.37;4.00;;;8.10;99.90;;;;;;5083176;28;20182;-77
2022/12/31 04:05:37;;;;;;;5.93;4.20;;;8.10;99.90;;;;;;5063122;28;20187;-77
2022/12/31 04:08:04;;;;;;;6.30;3.93;;;8.10;99.90;;;;;;5072687;28;20189;-77
2022/12/31 04:10:30;;;;;;;7.10;4.20;;;8.20;99.90;;;;;;5046679;28;20209;-77
2022/12/31 04:12:59;;;;;;;6.40;4.87;;;8.20;99.90;;;;;;5071059;28;20187;-77
2022/12/31 04:15:25;;;;;;;8.00;4.47;;;8.10;99.90;;;;;;5065691;28;20194;-77
2022/12/31 04:17:52;;;;;;;5.97;4.03;;;8.00;99.90;;;;;;5061459;28;20215;-77
2022/12/31 04:20:18;;;;;;;7.13;4.17;;;8.00;99.90;;;;;;5050468;28;20174;-77
2022/12/31 04:22:44;;;;;;;5.83;4.20;;;8.00;99.90;;;;;;5059993;28;20202;-77
2022/12/31 04:25:11;;;;;;;6.97;4.50;;;8.00;99.90;;;;;;5048934;28;20255;-77
2022/12/31 04:27:42;;;;;;;7.37;4.37;;;8.00;99.90;;;;;;5059812;28;20264;-77
2022/12/31 04:30:11;;;;;;;5.80;4.43;;;8.00;99.90;;;;;;5051733;28;20176;-77
2022/12/31 04:32:37;;;;;;;5.33;3.87;;;8.00;99.90;;;;;;5069428;28;20592;-77
2022/12/31 04:35:05;;;;;;;6.87;4.20;;;8.00;99.90;;;;;;5065100;28;20195;-77
2022/12/31 04:37:31;;;;;;;5.73;4.10;;;8.00;99.90;;;;;;5057037;28;20203;-77
2022/12/31 04:39:57;;;;;;;5.60;4.00;;;8.00;99.90;;;;;;5053313;28;20175;-77
2022/12/31 04:42:24;;;;;;;5.10;3.80;;;8.00;99.90;;;;;;5068910;28;20729;-77
2022/12/31 04:44:50;;;;;;;6.70;4.40;;;8.00;99.90;;;;;;5073228;28;20190;-77
2022/12/31 04:47:16;;;;;;;5.87;4.27;;;8.00;99.90;;;;;;5060501;28;20670;-77
2022/12/31 04:49:43;;;;;;;6.07;4.50;;;8.00;99.90;;;;;;5049080;28;20256;-77
2022/12/31 04:52:09;;;;;;;5.50;4.10;;;8.00;99.90;;;;;;5069377;28;20277;-77
2022/12/31 04:54:36;;;;;;;7.83;4.40;;;8.00;99.90;;;;;;5052172;28;20261;-77
2022/12/31 04:57:02;;;;;;;6.93;4.50;;;8.00;99.90;;;;;;5054479;28;20220;-77
2022/12/31 04:59:30;;;;;;;6.33;4.70;;;8.00;99.90;;;;;;5055766;28;20244;-77
2022/12/31 05:01:56;;;;;;;6.93;4.73;;;8.00;99.90;;;;;;5071405;28;20205;-77
2022/12/31 05:04:23;;;;;;;8.80;4.77;;;8.00;99.90;;;;;;5062851;28;20266;-77
2022/12/31 05:06:50;;;;;;;6.10;3.93;;;8.00;99.90;;;;;;5080858;28;20240;-77
2022/12/31 05:09:16;;;;;;;7.67;4.50;;;8.00;99.90;;;;;;5050199;28;20286;-77
2022/12/31 05:11:42;;;;;;;6.70;4.30;;;8.00;99.90;;;;;;5049569;28;20626;-77
2022/12/31 05:14:08;;;;;;;7.37;4.70;;;8.10;99.90;;;;;;5094292;28;20278;-77
2022/12/31 05:16:34;;;;;;;5.70;4.13;;;8.10;99.90;;;;;;5085845;28;20215;-77
2022/12/31 05:19:01;;;;;;;7.87;5.13;;;8.10;99.90;;;;;;5066415;28;20187;-77
2022/12/31 05:21:27;;;;;;;7.57;4.67;;;8.10;99.90;;;;;;5080137;28;20183;-77
2022/12/31 05:23:53;;;;;;;6.17;4.40;;;8.10;99.90;;;;;;5077112;28;20202;-77
2022/12/31 05:26:20;;;;;;;5.73;4.80;;;8.10;99.90;;;;;;5063371;28;20197;-77
2022/12/31 05:28:46;;;;;;;8.20;4.30;;;8.10;99.90;;;;;;5073583;28;20183;-77
2022/12/31 05:31:12;;;;;;;6.50;5.00;;;8.10;99.90;;;;;;5049140;28;20187;-77
2022/12/31 05:33:39;;;;;;;7.60;4.80;;;8.10;99.90;;;;;;5063099;28;20200;-77
2022/12/31 05:36:06;;;;;;;7.43;4.63;;;8.10;99.90;;;;;;5043196;28;20520;-78
2022/12/31 05:38:32;;;;;;;5.87;4.63;;;8.20;99.90;;;;;;5070598;28;20245;-77
2022/12/31 05:41:07;;;;;;;9.83;4.77;;;8.20;99.90;;;;;;5088261;28;20179;-77
2022/12/31 05:43:34;;;;;;;6.53;4.53;;;8.20;99.90;;;;;;5059791;28;20187;-77
2022/12/31 05:46:02;;;;;;;7.33;5.00;;;8.20;99.90;;;;;;5065129;28;20762;-77
2022/12/31 05:48:31;;;;;;;7.17;5.50;;;8.20;99.90;;;;;;5073790;28;20236;-76
2022/12/31 05:50:57;;;;;;;8.00;4.70;;;8.30;99.90;;;;;;5071007;28;20232;-77
2022/12/31 05:53:26;;;;;;;6.90;4.87;;;8.30;99.90;;;;;;5071607;28;20273;-77
2022/12/31 05:55:52;;;;;;;6.37;4.73;;;8.30;99.90;;;;;;5061175;28;20187;-77
2022/12/31 05:58:19;;;;;;;6.13;4.83;;;8.30;99.90;;;;;;5057500;28;20834;-77
2022/12/31 06:00:45;;;;;;;8.23;4.70;;;8.40;99.90;;;;;;5032700;28;20179;-77
2022/12/31 06:03:12;;;;;;;7.73;5.10;;;8.40;99.90;;;;;;5060509;28;20185;-77
2022/12/31 06:05:42;;;;;;;8.87;5.43;;;8.40;99.90;;;;;;5071977;28;20581;-77
2022/12/31 06:08:11;;;;;;;7.03;4.73;;;8.40;99.90;;;;;;5052228;28;20187;-77
2022/12/31 06:10:39;;;;;;;8.50;5.33;;;8.50;99.90;;;;;;5070509;28;20179;-77
2022/12/31 06:13:05;;;;;;;6.43;4.97;;;8.50;99.90;;;;;;5071504;28;20174;-77
2022/12/31 06:15:32;;;;;;;10.17;5.10;;;8.60;99.90;;;;;;5071499;28;20244;-77
2022/12/31 06:17:58;;;;;;;7.67;5.47;;;8.60;99.90;;;;;;5063801;28;20245;-77
2022/12/31 06:20:24;;;;;;;6.93;5.13;;;8.70;99.90;;;;;;5061732;28;20660;-77
2022/12/31 06:22:51;;;;;;;10.20;5.20;;;8.70;99.90;;;;;;5088629;28;20706;-77
2022/12/31 06:25:18;;;;;;;6.30;4.97;;;8.80;99.90;;;;;;5083058;28;20210;-77
2022/12/31 06:27:44;;;;;;;7.40;4.90;;;8.80;99.90;;;;;;5069846;28;20286;-77
2022/12/31 06:30:11;;;;;;;5.80;4.90;;;8.90;99.90;;;;;;5080505;28;20187;-77
2022/12/31 06:32:39;;;;;;;8.83;5.20;;;9.00;99.90;;;;;;5081216;28;20185;-77
2022/12/31 06:35:06;;;;;;;6.87;5.10;;;9.00;99.90;;;;;;5066415;28;20278;-77
2022/12/31 06:37:33;;;;;;;6.40;4.97;;;9.10;99.90;;;;;;5056428;28;20225;-76
2022/12/31 06:40:00;;;;;;;17.63;5.33;;;9.10;99.90;;;;;;5072912;28;20199;-76
2022/12/31 06:42:30;;;;;;;8.83;5.70;;;9.20;99.90;;;;;;5067567;28;20183;-77
2022/12/31 06:44:58;;;;;;;8.67;5.07;;;9.30;99.90;;;;;;5066689;28;20182;-76
2022/12/31 06:47:24;;;;;;;9.00;5.30;;;9.40;99.90;;;;;;5080783;28;20249;-75
2022/12/31 06:49:51;;;;;;;9.63;5.40;;;9.40;99.90;;;;;;5078976;28;20272;-75
2022/12/31 06:52:19;;;;;;;8.53;5.70;;;9.40;99.90;;;;;;5060188;28;20679;-76
2022/12/31 06:54:46;;;;;;;7.63;5.90;;;9.50;99.90;;;;;;5081626;28;20202;-75
2022/12/31 06:57:13;;;;;;;10.57;5.67;;;9.50;99.90;;;;;;5084307;28;20211;-76
2022/12/31 06:59:40;;;;;;;7.43;5.97;;;9.60;99.90;;;;;;5065009;28;20266;-76
2022/12/31 07:02:37;;;;;;;6.30;5.03;;;9.60;99.90;;;;;;5062277;28;20194;-76
2022/12/31 07:05:25;;;;;;;10.03;6.23;;;9.70;99.90;;;;;;5073333;28;20267;-76
2022/12/31 07:08:15;;;;;;;10.17;5.47;;;9.70;99.90;;;;;;5079698;28;20306;-76
2022/12/31 07:10:53;;;;;;;7.77;5.47;;;9.80;99.90;;;;;;5055589;28;20186;-76
2022/12/31 07:13:57;;;;;;;6.83;5.80;;;9.90;99.90;;;;;;5054001;28;20211;-76
2022/12/31 07:17:08;;;;;;;8.67;5.83;;;9.90;99.90;;;;;;5085515;28;20190;-76
2022/12/31 07:19:44;;;;;;;7.20;5.73;;;9.90;99.90;;;;;;5062533;28;20190;-76
2022/12/31 07:22:15;;;;;;;7.83;5.97;;;10.00;99.90;;;;;;5062968;28;20194;-76
2022/12/31 07:24:44;;;;;;;7.50;5.80;;;10.00;99.90;;;;;;5069749;28;20187;-77
2022/12/31 07:27:48;;;;;;;7.80;5.50;;;10.00;99.90;;;;;;5039380;28;20183;-77
2022/12/31 07:30:37;;;;;;;8.03;5.77;;;10.10;99.90;;;;;;5056179;28;20226;-76
2022/12/31 07:33:41;;;;;;;10.33;5.90;;;10.10;99.90;;;;;;5057475;28;20225;-76
2022/12/31 07:36:25;;;;;;;11.87;6.63;;;10.20;99.90;;;;;;5054580;28;20319;-77
2022/12/31 07:39:08;;;;;;;8.80;6.10;;;10.30;99.90;;;;;;5085679;28;20269;-76
2022/12/31 07:41:58;;;;;;;10.27;6.87;;;10.60;99.90;;;;;;5096217;28;20179;-76
2022/12/31 07:44:49;;;;;;;10.83;6.90;;;10.70;99.90;;;;;;5064097;28;20233;-76
2022/12/31 07:47:22;;;;;;;9.07;6.53;;;10.70;99.90;;;;;;5059450;28;20186;-77
2022/12/31 07:49:50;;;;;;;8.20;6.73;;;10.60;99.90;;;;;;5063819;28;20201;-76
2022/12/31 07:52:17;;;;;;;12.93;7.63;;;10.60;99.90;;;;;;5075800;28;20191;-77
2022/12/31 07:54:43;;;;;;;13.07;7.43;;;10.60;99.90;;;;;;5071477;28;20204;-77
2022/12/31 07:57:14;;;;;;;8.83;6.20;;;10.60;99.90;;;;;;5068310;28;20297;-77
2022/12/31 07:59:52;;;;;;;9.27;5.67;;;10.60;99.90;;;;;;5062439;28;20313;-77
2022/12/31 08:02:47;;;;;;;8.23;6.20;;;10.60;99.90;;;;;;5053891;28;20322;-77
2022/12/31 08:05:39;;;;;;;6.90;5.40;;;10.70;99.90;;;;;;5066084;28;20616;-77
2022/12/31 08:08:18;;;;;;;7.27;5.80;;;10.70;99.90;;;;;;5071372;28;20219;-76
2022/12/31 08:11:08;;;;;;;7.37;5.60;;;10.70;99.90;;;;;;5071205;28;20201;-76
2022/12/31 08:13:34;;;;;;;8.20;5.40;;;10.80;99.90;;;;;;5095683;28;20263;-77
2022/12/31 08:16:02;;;;;;;9.33;6.07;;;10.80;99.90;;;;;;5072700;28;20268;-76
2022/12/31 08:18:28;;;;;;;7.43;6.00;;;10.80;99.90;;;;;;5060441;28;20205;-77
2022/12/31 08:21:17;;;;;;;8.93;5.80;;;10.90;99.90;;;;;;5052804;28;20598;-76
2022/12/31 08:24:04;;;;;;;8.17;5.90;;;10.90;99.90;;;;;;5050306;28;20195;-76
2022/12/31 08:26:39;;;;;;;8.30;6.37;;;11.00;99.90;;;;;;5067640;28;20187;-77
2022/12/31 08:29:47;;;;;;;10.83;6.20;;;11.10;99.90;;;;;;5082242;28;20511;-76
2022/12/31 08:32:22;;;;;;;7.87;5.90;;;11.20;99.90;;;;;;5058418;28;20179;-76
2022/12/31 08:35:34;;;;;;;9.03;6.43;;;11.20;99.90;;;;;;5051096;28;20186;-76
2022/12/31 08:38:40;;;;;;;10.40;5.97;;;11.30;99.90;;;;;;5068739;28;20218;-76
2022/12/31 08:41:17;;;;;;;9.83;6.50;;;11.40;99.90;;;;;;5065332;28;20978;-76
2022/12/31 08:44:14;;;;;;;7.77;6.17;;;11.50;99.90;;;;;;5051458;28;20189;-76
2022/12/31 08:46:56;;;;;;;11.20;6.70;;;11.70;99.90;;;;;;5059314;28;20194;-77
2022/12/31 08:49:33;;;;;;;9.00;6.47;;;11.80;99.90;;;;;;5049200;28;20206;-77
2022/12/31 08:52:01;;;;;;;9.60;6.33;;;12.00;99.90;;;;;;5073040;28;20186;-77
2022/12/31 08:54:29;;;;;;;12.57;7.23;;;12.00;99.90;;;;;;5073310;28;20218;-77
2022/12/31 08:57:22;;;;;;;9.37;6.80;;;12.20;99.90;;;;;;5063171;28;20236;-77
2022/12/31 09:00:06;;;;;;;9.33;6.27;;;12.20;99.90;;;;;;5063509;28;20245;-77
2022/12/31 09:03:10;;;;;;;8.80;6.53;;;12.40;99.90;;;;;;5060726;28;20190;-77
2022/12/31 09:06:01;;;;;;;9.30;6.27;;;12.60;99.90;;;;;;5083657;28;20194;-77
2022/12/31 09:08:40;;;;;;;12.27;6.57;;;12.60;99.90;;;;;;5071575;28;20206;-77
2022/12/31 09:11:17;;;;;;;12.80;7.20;;;12.60;99.90;;;;;;5060778;28;20578;-77
2022/12/31 09:13:49;;;;;;;8.63;6.83;;;12.70;99.90;;;;;;5063118;28;20197;-77
2022/12/31 09:16:45;;;;;;;9.77;7.00;;;12.70;99.90;;;;;;5052004;28;20262;-77
2022/12/31 09:19:11;;;;;;;12.00;6.83;;;12.60;99.90;;;;;;5053367;28;20199;-77
2022/12/31 09:21:43;;;;;;;14.13;6.57;;;12.60;99.90;;;;;;5064888;28;20279;-77
2022/12/31 09:24:13;;;;;;;9.67;6.93;;;12.70;99.90;;;;;;5066275;28;20183;-77
2022/12/31 09:26:40;;;;;;;7.73;6.40;;;12.80;99.90;;;;;;5083483;28;20222;-77
2022/12/31 09:29:31;;;;;;;15.27;7.00;;;12.90;99.90;;;;;;5067688;28;20195;-77
2022/12/31 09:32:34;;;;;;;13.73;6.43;;;12.90;99.90;;;;;;5083577;28;20667;-77
2022/12/31 09:35:45;;;;;;;9.90;6.97;;;12.90;99.90;;;;;;5067337;28;20187;-77
2022/12/31 09:38:35;;;;;;;9.83;6.83;;;12.90;99.90;;;;;;5082734;28;20222;-77
2022/12/31 09:41:53;;;;;;;8.40;6.63;;;13.00;99.90;;;;;;5048761;28;20210;-77
2022/12/31 09:44:42;;;;;;;8.60;6.40;;;13.10;99.90;;;;;;5067846;28;20190;-77
2022/12/31 09:47:24;;;;;;;9.10;6.50;;;13.20;99.90;;;;;;5069148;28;20231;-76
2022/12/31 09:50:11;;;;;;;12.90;6.17;;;13.40;99.90;;;;;;5065655;28;20201;-78
2022/12/31 09:53:15;;;;;;;7.97;6.43;;;13.50;99.90;;;;;;5085166;28;20277;-77
2022/12/31 09:56:31;;;;;;;10.60;6.70;;;13.50;99.90;;;;;;5056683;28;20202;-77
2022/12/31 09:59:13;;;;;;;11.13;6.63;;;13.40;99.90;;;;;;5067772;28;20560;-77
2022/12/31 10:01:54;;;;;;;8.33;6.30;;;13.50;99.90;;;;;;5074098;28;20194;-77
2022/12/31 10:04:54;;;;;;;9.53;6.80;;;13.50;99.90;;;;;;5063850;28;20194;-77
2022/12/31 10:08:16;;;;;;;9.73;6.00;;;13.60;99.90;;;;;;5077034;28;20191;-77
2022/12/31 10:10:58;;;;;;;8.37;6.23;;;13.60;99.90;;;;;;5078817;28;20596;-76
2022/12/31 10:13:42;;;;;;;9.20;6.10;;;13.60;99.90;;;;;;5068965;28;20887;-77
2022/12/31 10:16:37;;;;;;;9.03;6.70;;;13.60;99.90;;;;;;5065398;28;20240;-77
2022/12/31 10:19:27;;;;;;;9.03;6.13;;;13.50;99.90;;;;;;5060852;28;20594;-77
2022/12/31 10:22:41;;;;;;;8.73;5.63;;;13.60;99.90;;;;;;5066340;28;20202;-77
2022/12/31 10:25:45;;;;;;;9.53;5.60;;;13.60;99.90;;;;;;5067479;28;20202;-77
2022/12/31 10:28:23;;;;;;;10.53;5.67;;;13.80;99.90;;;;;;5046631;28;20211;-77
2022/12/31 10:31:06;;;;;;;8.27;5.93;;;13.80;99.90;;;;;;5048111;28;20179;-77
2022/12/31 10:34:06;;;;;;;10.60;6.57;;;13.60;99.90;;;;;;5080305;28;20261;-77
2022/12/31 10:36:52;;;;;;;9.43;6.27;;;13.50;99.90;;;;;;5084013;28;20616;-77
2022/12/31 10:39:51;;;;;;;11.10;6.13;;;13.30;99.90;;;;;;5080910;28;20669;-77
2022/12/31 10:43:12;;;;;;;8.20;6.50;;;13.30;99.90;;;;;;5068227;28;20171;-77
2022/12/31 10:45:57;;;;;;;9.10;6.33;;;13.40;99.90;;;;;;5050760;28;20183;-77
2022/12/31 10:48:35;;;;;;;7.90;5.87;;;13.40;99.90;;;;;;5068260;28;20206;-77
2022/12/31 10:51:17;;;;;;;10.80;7.13;;;13.40;99.90;;;;;;5049988;28;20190;-77
2022/12/31 10:54:17;;;;;;;8.47;6.23;;;13.60;99.90;;;;;;5084604;28;20247;-77
2022/12/31 10:57:18;;;;;;;10.53;6.40;;;13.70;99.90;;;;;;5062307;28;20624;-77
2022/12/31 11:00:02;;;;;;;8.67;5.60;;;13.90;99.90;;;;;;5051085;28;20210;-77
2022/12/31 11:03:24;;;;;;;7.87;5.50;;;14.00;99.90;;;;;;5069145;28;20212;-77
2022/12/31 11:06:57;;;;;;;8.27;5.53;;;13.90;99.90;;;;;;5044023;28;20199;-77
2022/12/31 11:09:32;;;;;;;12.33;5.60;;;13.80;99.90;;;;;;5047088;28;20212;-77
2022/12/31 11:12:14;;;;;;;8.50;5.67;;;13.70;99.90;;;;;;5081864;28;20183;-77
2022/12/31 11:14:54;;;;;;;6.20;4.70;;;13.70;99.90;;;;;;5058337;28;20260;-77
2022/12/31 11:17:51;;;;;;;6.77;4.70;;;13.90;99.90;;;;;;5065552;28;20214;-77
2022/12/31 11:20:47;;;;;;;6.50;4.40;;;13.90;99.90;;;;;;5055030;28;20244;-77
2022/12/31 11:23:37;;;;;;;4.53;4.00;;;13.80;99.90;;;;;;5067635;28;20241;-77
2022/12/31 11:26:51;;;;;;;7.60;3.87;;;13.70;99.90;;;;;;5066744;28;20806;-77
2022/12/31 11:29:32;;;;;;;7.37;4.40;;;13.60;99.90;;;;;;5064359;28;20194;-77
2022/12/31 11:32:20;;;;;;;5.03;4.00;;;13.50;99.90;;;;;;5064100;28;20176;-77
2022/12/31 11:35:22;;;;;;;5.80;4.20;;;13.40;99.90;;;;;;5048216;28;20286;-77
2022/12/31 11:39:05;;;;;;;5.37;3.50;;;13.50;99.90;;;;;;5063658;28;20205;-77
2022/12/31 11:41:48;;;;;;;4.50;3.57;;;13.70;99.90;;;;;;4999644;28;20196;-77
2022/12/31 11:44:53;;;;;;;3.30;3.00;;;13.90;99.90;;;;;;5047246;28;20179;-78
2022/12/31 11:47:57;;;;;;;3.70;3.00;;;14.00;99.90;;;;;;5047168;28;20202;-78
2022/12/31 11:50:44;;;;;;;3.93;3.23;;;14.20;99.90;;;;;;5057480;28;20197;-78
2022/12/31 11:54:12;;;;;;;5.83;3.20;;;14.30;99.90;;;;;;5046620;28;20261;-78
2022/12/31 11:56:46;;;;;;;3.83;2.90;;;14.50;99.90;;;;;;5061751;28;20728;-77
2022/12/31 11:59:14;;;;;;;5.40;3.07;;;14.50;99.90;;;;;;5062567;28;20529;-78
2022/12/31 12:02:17;;;;;;;4.37;3.30;;;14.50;99.90;;;;;;5050580;28;20179;-78
2022/12/31 12:04:47;;;;;;;6.77;3.87;;;14.70;99.90;;;;;;5065482;28;20218;-78
2022/12/31 12:07:16;;;;;;;5.70;3.77;;;14.80;99.90;;;;;;5066945;28;20183;-78
2022/12/31 12:09:44;;;;;;;4.20;3.43;;;14.80;99.90;;;;;;5068615;28;20713;-77
2022/12/31 12:12:11;;;;;;;8.43;3.70;;;14.80;99.90;;;;;;5048035;28;20194;-77
2022/12/31 12:14:41;;;;;;;7.30;4.10;;;14.90;99.90;;;;;;5066058;28;20797;-78
2022/12/31 12:17:16;;;;;;;6.60;3.57;;;14.90;99.90;;;;;;5066676;28;20228;-77
2022/12/31 12:19:55;;;;;;;4.97;3.30;;;14.90;99.90;;;;;;5067285;28;20646;-77
2022/12/31 12:22:27;;;;;;;4.77;3.60;;;14.90;99.90;;;;;;5066680;28;20198;-78
2022/12/31 12:25:15;;;;;;;7.13;3.60;;;14.90;99.90;;;;;;5066964;28;20179;-77
2022/12/31 12:27:41;;;;;;;4.57;3.40;;;15.00;99.90;;;;;;5066894;28;20183;-78
2022/12/31 12:30:26;;;;;;;9.17;3.73;;;15.00;99.90;;;;;;5066536;28;20270;-77
2022/12/31 12:33:03;;;;;;;4.97;3.20;;;15.00;99.90;;;;;;5078793;28;20618;-77
2022/12/31 12:35:33;;;;;;;3.03;2.50;;;15.00;99.90;;;;;;5083544;28;20194;-77
2022/12/31 12:38:05;;;;;;;3.73;3.10;;;14.90;99.90;;;;;;5049998;28;20215;-77
2022/12/31 12:40:33;;;;;;;3.93;2.90;;;15.00;99.90;;;;;;5066876;28;20582;-78
2022/12/31 12:43:02;;;;;;;4.70;2.90;;;15.00;99.90;;;;;;5049931;28;20222;-77
2022/12/31 12:45:48;;;;;;;4.17;3.13;;;15.00;99.90;;;;;;5046743;28;20175;-77
2022/12/31 12:48:40;;;;;;;6.13;3.37;;;15.00;99.90;;;;;;5066094;28;20269;-77
2022/12/31 12:51:35;;;;;;;4.07;3.20;;;15.00;99.90;;;;;;5070852;28;20190;-77
2022/12/31 12:54:27;;;;;;;3.93;3.13;;;15.00;99.90;;;;;;5051841;28;20187;-77
2022/12/31 12:57:09;;;;;;;5.93;3.50;;;15.00;99.90;;;;;;5082321;28;20202;-77
2022/12/31 13:00:03;;;;;;;4.20;3.37;;;15.00;99.90;;;;;;5066854;28;20611;-76
2022/12/31 13:02:39;;;;;;;7.60;3.53;;;15.00;99.90;;;;;;5080885;28;20552;-77
2022/12/31 13:05:44;;;;;;;5.60;3.70;;;14.90;99.90;;;;;;5050020;28;20190;-78
2022/12/31 13:08:52;;;;;;;7.60;4.00;;;14.90;99.90;;;;;;5066777;28;20236;-77
2022/12/31 13:11:58;;;;;;;6.27;3.87;;;14.80;99.90;;;;;;5050503;28;20182;-77
2022/12/31 13:14:28;;;;;;;6.87;3.90;;;14.80;99.90;;;;;;5048980;28;20540;-77
2022/12/31 13:17:46;;;;;;;11.23;4.87;;;14.80;99.90;;;;;;5067098;28;20309;-77
2022/12/31 13:20:40;;;;;;;5.90;4.40;;;14.70;99.90;;;;;;5044961;28;20240;-78
2022/12/31 13:23:48;;;;;;;4.93;4.43;;;14.70;99.90;;;;;;5069807;28;20297;-77
2022/12/31 13:26:32;;;;;;;12.63;4.70;;;14.70;99.90;;;;;;5068611;28;20787;-77
2022/12/31 13:29:02;;;;;;;8.73;5.47;;;14.70;99.90;;;;;;5049513;28;20567;-77
2022/12/31 13:31:38;;;;;;;6.20;4.73;;;14.70;99.90;;;;;;5069728;28;20194;-77
2022/12/31 13:34:22;;;;;;;8.10;5.17;;;14.70;99.90;;;;;;5049320;28;20193;-77
2022/12/31 13:36:53;;;;;;;8.80;5.70;;;14.60;99.90;;;;;;5049235;28;20206;-77
2022/12/31 13:39:27;;;;;;;10.03;6.03;;;14.60;99.90;;;;;;5049472;28;20650;-77
2022/12/31 13:42:15;;;;;;;9.90;6.00;;;14.50;99.90;;;;;;5078897;28;20555;-77
2022/12/31 13:44:53;;;;;;;9.60;5.67;;;14.50;99.90;;;;;;5070235;28;20183;-77
2022/12/31 13:47:43;;;;;;;8.23;5.50;;;14.40;99.90;;;;;;5052315;28;20555;-77
2022/12/31 13:50:30;;;;;;;10.50;5.43;;;14.40;99.90;;;;;;5069264;28;20183;-77
2022/12/31 13:53:47;;;;;;;9.03;5.50;;;14.30;99.90;;;;;;5069395;28;20614;-77
2022/12/31 13:56:24;;;;;;;11.07;6.30;;;14.30;99.90;;;;;;5075391;28;20670;-77
2022/12/31 13:59:02;;;;;;;8.57;5.67;;;14.20;99.90;;;;;;5068888;28;20671;-77